sensor_id;sensor_type;location;lat;lon;timestamp;pressure;altitude;pressure_sealevel;temperature;humidity
74161;BME280;62512;-46.434;168.382;2022-08-25T00:00:46;101382;;;unknown;50.59
74161;BME280;62512;-46.434;168.382;2022-08-25T00:01:46;101380;;;unknown;50.42
74161;BME280;62512;-46.434;168.382;2022-08-25T00:02:46;101378;;;unknown;50.91
74161;BME280;62512;-46.434;168.382;2022-08-25T00:03:46;101379;;;unknown;49.98
74161;BME280;62512;-46.434;168.382;2022-08-25T00:04:45;101378;;;unknown;50.60
74161;BME280;62512;-46.434;168.382;2022-08-25T00:05:45;101375;;;unknown;50.37
74161;BME280;62512;-46.434;168.382;2022-08-25T00:06:46;101374;;;unknown;50.05
74161;BME280;62512;-46.434;168.382;2022-08-25T00:08:45;101370;;;unknown;50.41
74161;BME280;62512;-46.434;168.382;2022-08-25T00:09:45;101368;;;unknown;49.71
74161;BME280;62512;-46.434;168.382;2022-08-25T00:10:45;101366;;;unknown;50.07
74161;BME280;62512;-46.434;168.382;2022-08-25T00:11:46;101362;;;unknown;49.74
74161;BME280;62512;-46.434;168.382;2022-08-25T00:12:45;101363;;;unknown;49.75
74161;BME280;62512;-46.434;168.382;2022-08-25T00:13:48;101357;;;unknown;49.66
74161;BME280;62512;-46.434;168.382;2022-08-25T00:14:45;101357;;;unknown;48.94
74161;BME280;62512;-46.434;168.382;2022-08-25T00:15:46;101353;;;unknown;49.46
74161;BME280;62512;-46.434;168.382;2022-08-25T00:16:46;101353;;;unknown;49.46
74161;BME280;62512;-46.434;168.382;2022-08-25T00:17:45;101352;;;unknown;48.90
74161;BME280;62512;-46.434;168.382;2022-08-25T00:18:46;101351;;;unknown;49.12
74161;BME280;62512;-46.434;168.382;2022-08-25T00:19:45;101350;;;unknown;49.12
74161;BME280;62512;-46.434;168.382;2022-08-25T00:20:45;101348;;;unknown;48.69
74161;BME280;62512;-46.434;168.382;2022-08-25T00:21:45;101348;;;unknown;47.70
74161;BME280;62512;-46.434;168.382;2022-08-25T00:22:45;101346;;;unknown;47.92
74161;BME280;62512;-46.434;168.382;2022-08-25T00:25:45;101347;;;unknown;47.72
74161;BME280;62512;-46.434;168.382;2022-08-25T00:26:46;101345;;;unknown;47.45
74161;BME280;62512;-46.434;168.382;2022-08-25T00:27:45;101347;;;unknown;48.51
74161;BME280;62512;-46.434;168.382;2022-08-25T00:28:45;101351;;;unknown;48.66
74161;BME280;62512;-46.434;168.382;2022-08-25T00:29:45;101349;;;unknown;49.22
74161;BME280;62512;-46.434;168.382;2022-08-25T00:30:45;101350;;;unknown;49.58
74161;BME280;62512;-46.434;168.382;2022-08-25T00:32:46;101351;;;unknown;48.40
74161;BME280;62512;-46.434;168.382;2022-08-25T00:33:46;101348;;;unknown;48.73
74161;BME280;62512;-46.434;168.382;2022-08-25T00:34:45;101348;;;unknown;48.25
74161;BME280;62512;-46.434;168.382;2022-08-25T00:35:45;101349;;;unknown;47.69
74161;BME280;62512;-46.434;168.382;2022-08-25T00:36:45;101349;;;unknown;47.86
74161;BME280;62512;-46.434;168.382;2022-08-25T00:37:45;101350;;;unknown;48.10
74161;BME280;62512;-46.434;168.382;2022-08-25T00:38:46;101354;;;unknown;47.95
74161;BME280;62512;-46.434;168.382;2022-08-25T00:39:45;101357;;;unknown;48.45
74161;BME280;62512;-46.434;168.382;2022-08-25T00:40:46;101359;;;unknown;48.66
74161;BME280;62512;-46.434;168.382;2022-08-25T00:41:46;101357;;;unknown;48.55
74161;BME280;62512;-46.434;168.382;2022-08-25T00:42:45;101358;;;unknown;48.90
74161;BME280;62512;-46.434;168.382;2022-08-25T00:43:48;101354;;;unknown;49.07
74161;BME280;62512;-46.434;168.382;2022-08-25T00:44:45;101356;;;unknown;49.13
74161;BME280;62512;-46.434;168.382;2022-08-25T00:45:45;101357;;;unknown;49.02
74161;BME280;62512;-46.434;168.382;2022-08-25T00:46:46;101353;;;unknown;49.32
74161;BME280;62512;-46.434;168.382;2022-08-25T00:47:45;101354;;;unknown;49.12
74161;BME280;62512;-46.434;168.382;2022-08-25T00:48:46;101353;;;unknown;49.86
74161;BME280;62512;-46.434;168.382;2022-08-25T00:49:46;101353;;;unknown;49.86
74161;BME280;62512;-46.434;168.382;2022-08-25T00:50:45;101348;;;unknown;49.94
74161;BME280;62512;-46.434;168.382;2022-08-25T00:51:46;101347;;;unknown;50.19
74161;BME280;62512;-46.434;168.382;2022-08-25T00:52:47;101345;;;unknown;50.01
74161;BME280;62512;-46.434;168.382;2022-08-25T00:53:45;101345;;;unknown;49.95
74161;BME280;62512;-46.434;168.382;2022-08-25T00:54:46;101343;;;unknown;50.27
74161;BME280;62512;-46.434;168.382;2022-08-25T00:56:45;101342;;;unknown;50.13
74161;BME280;62512;-46.434;168.382;2022-08-25T00:57:47;101342;;;unknown;50.13
74161;BME280;62512;-46.434;168.382;2022-08-25T00:58:45;101337;;;unknown;50.15
74161;BME280;62512;-46.434;168.382;2022-08-25T00:59:45;101342;;;unknown;50.17
74161;BME280;62512;-46.434;168.382;2022-08-25T01:00:46;101340;;;unknown;49.75
74161;BME280;62512;-46.434;168.382;2022-08-25T01:01:45;101336;;;unknown;50.08
74161;BME280;62512;-46.434;168.382;2022-08-25T01:02:46;101336;;;unknown;50.42
74161;BME280;62512;-46.434;168.382;2022-08-25T01:03:45;101336;;;unknown;50.72
74161;BME280;62512;-46.434;168.382;2022-08-25T01:04:46;101333;;;unknown;51.25
74161;BME280;62512;-46.434;168.382;2022-08-25T01:06:46;101330;;;unknown;51.28
74161;BME280;62512;-46.434;168.382;2022-08-25T01:09:46;101322;;;unknown;51.24
74161;BME280;62512;-46.434;168.382;2022-08-25T01:10:45;101325;;;unknown;51.19
74161;BME280;62512;-46.434;168.382;2022-08-25T01:11:46;101325;;;unknown;50.62
74161;BME280;62512;-46.434;168.382;2022-08-25T01:13:46;101320;;;unknown;51.34
74161;BME280;62512;-46.434;168.382;2022-08-25T01:14:45;101319;;;unknown;51.13
74161;BME280;62512;-46.434;168.382;2022-08-25T01:15:47;101317;;;unknown;51.15
74161;BME280;62512;-46.434;168.382;2022-08-25T01:16:46;101318;;;unknown;51.31
74161;BME280;62512;-46.434;168.382;2022-08-25T01:17:46;101313;;;unknown;50.93
74161;BME280;62512;-46.434;168.382;2022-08-25T01:18:47;101315;;;unknown;50.77
74161;BME280;62512;-46.434;168.382;2022-08-25T01:19:46;101309;;;unknown;50.69
74161;BME280;62512;-46.434;168.382;2022-08-25T01:20:47;101308;;;unknown;50.85
74161;BME280;62512;-46.434;168.382;2022-08-25T01:22:45;101302;;;unknown;50.21
74161;BME280;62512;-46.434;168.382;2022-08-25T01:24:46;101296;;;unknown;49.96
74161;BME280;62512;-46.434;168.382;2022-08-25T01:25:47;101298;;;unknown;49.62
74161;BME280;62512;-46.434;168.382;2022-08-25T01:26:45;101295;;;unknown;49.88
74161;BME280;62512;-46.434;168.382;2022-08-25T01:27:45;101296;;;unknown;49.59
74161;BME280;62512;-46.434;168.382;2022-08-25T01:28:46;101297;;;unknown;49.27
74161;BME280;62512;-46.434;168.382;2022-08-25T01:30:45;101293;;;unknown;48.89
74161;BME280;62512;-46.434;168.382;2022-08-25T01:31:45;101294;;;unknown;49.05
74161;BME280;62512;-46.434;168.382;2022-08-25T01:32:45;101291;;;unknown;49.22
74161;BME280;62512;-46.434;168.382;2022-08-25T01:34:46;101290;;;unknown;49.49
74161;BME280;62512;-46.434;168.382;2022-08-25T01:35:46;101287;;;unknown;48.80
74161;BME280;62512;-46.434;168.382;2022-08-25T01:36:45;101284;;;unknown;48.85
74161;BME280;62512;-46.434;168.382;2022-08-25T01:37:45;101281;;;unknown;48.97
74161;BME280;62512;-46.434;168.382;2022-08-25T01:38:45;101284;;;unknown;48.32
74161;BME280;62512;-46.434;168.382;2022-08-25T01:39:45;101282;;;unknown;48.12
74161;BME280;62512;-46.434;168.382;2022-08-25T01:40:45;101286;;;unknown;48.61
74161;BME280;62512;-46.434;168.382;2022-08-25T01:41:49;101284;;;unknown;48.05
74161;BME280;62512;-46.434;168.382;2022-08-25T01:43:45;101281;;;unknown;47.51
74161;BME280;62512;-46.434;168.382;2022-08-25T01:44:46;101284;;;unknown;47.72
74161;BME280;62512;-46.434;168.382;2022-08-25T01:45:46;101283;;;unknown;47.31
74161;BME280;62512;-46.434;168.382;2022-08-25T01:46:45;101280;;;unknown;47.57
74161;BME280;62512;-46.434;168.382;2022-08-25T01:47:45;101280;;;unknown;47.57
74161;BME280;62512;-46.434;168.382;2022-08-25T01:48:45;101279;;;unknown;47.35
74161;BME280;62512;-46.434;168.382;2022-08-25T01:49:45;101278;;;unknown;47.06
74161;BME280;62512;-46.434;168.382;2022-08-25T01:50:45;101281;;;unknown;46.37
74161;BME280;62512;-46.434;168.382;2022-08-25T01:51:47;101280;;;unknown;46.46
74161;BME280;62512;-46.434;168.382;2022-08-25T01:53:45;101274;;;unknown;46.99
74161;BME280;62512;-46.434;168.382;2022-08-25T01:54:45;101275;;;unknown;47.01
74161;BME280;62512;-46.434;168.382;2022-08-25T01:55:45;101273;;;unknown;46.97
74161;BME280;62512;-46.434;168.382;2022-08-25T01:56:45;101273;;;unknown;47.39
74161;BME280;62512;-46.434;168.382;2022-08-25T01:57:45;101275;;;unknown;47.15
74161;BME280;62512;-46.434;168.382;2022-08-25T01:58:46;101277;;;unknown;47.55
74161;BME280;62512;-46.434;168.382;2022-08-25T01:59:45;101280;;;unknown;47.49
74161;BME280;62512;-46.434;168.382;2022-08-25T02:00:46;101280;;;unknown;46.83
74161;BME280;62512;-46.434;168.382;2022-08-25T02:01:45;101276;;;unknown;46.86
74161;BME280;62512;-46.434;168.382;2022-08-25T02:02:45;101276;;;unknown;46.67
74161;BME280;62512;-46.434;168.382;2022-08-25T02:03:46;101275;;;unknown;46.78
74161;BME280;62512;-46.434;168.382;2022-08-25T02:04:45;101270;;;unknown;46.69
74161;BME280;62512;-46.434;168.382;2022-08-25T02:05:46;101271;;;unknown;46.65
74161;BME280;62512;-46.434;168.382;2022-08-25T02:06:45;101275;;;unknown;46.26
74161;BME280;62512;-46.434;168.382;2022-08-25T02:07:45;101272;;;unknown;46.68
74161;BME280;62512;-46.434;168.382;2022-08-25T02:08:46;101268;;;unknown;46.20
74161;BME280;62512;-46.434;168.382;2022-08-25T02:09:45;101270;;;unknown;46.14
74161;BME280;62512;-46.434;168.382;2022-08-25T02:10:45;101271;;;unknown;46.37
74161;BME280;62512;-46.434;168.382;2022-08-25T02:14:45;101269;;;unknown;46.81
74161;BME280;62512;-46.434;168.382;2022-08-25T02:15:48;101272;;;unknown;46.38
74161;BME280;62512;-46.434;168.382;2022-08-25T02:16:46;101272;;;unknown;46.56
74161;BME280;62512;-46.434;168.382;2022-08-25T02:18:45;101266;;;unknown;46.12
74161;BME280;62512;-46.434;168.382;2022-08-25T02:19:45;101267;;;unknown;46.37
74161;BME280;62512;-46.434;168.382;2022-08-25T02:21:45;101267;;;unknown;45.86
74161;BME280;62512;-46.434;168.382;2022-08-25T02:22:45;101272;;;unknown;45.86
74161;BME280;62512;-46.434;168.382;2022-08-25T02:24:45;101266;;;unknown;45.02
74161;BME280;62512;-46.434;168.382;2022-08-25T02:25:45;101265;;;unknown;44.71
74161;BME280;62512;-46.434;168.382;2022-08-25T02:26:45;101262;;;unknown;44.92
74161;BME280;62512;-46.434;168.382;2022-08-25T02:27:45;101265;;;unknown;44.42
74161;BME280;62512;-46.434;168.382;2022-08-25T02:28:46;101264;;;unknown;44.37
74161;BME280;62512;-46.434;168.382;2022-08-25T02:29:45;101263;;;unknown;43.71
74161;BME280;62512;-46.434;168.382;2022-08-25T02:30:45;101265;;;unknown;44.06
74161;BME280;62512;-46.434;168.382;2022-08-25T02:32:45;101263;;;unknown;44.04
74161;BME280;62512;-46.434;168.382;2022-08-25T02:33:45;101266;;;unknown;44.06
74161;BME280;62512;-46.434;168.382;2022-08-25T02:34:45;101262;;;unknown;44.21
74161;BME280;62512;-46.434;168.382;2022-08-25T02:35:45;101265;;;unknown;44.33
74161;BME280;62512;-46.434;168.382;2022-08-25T02:36:45;101260;;;unknown;44.21
74161;BME280;62512;-46.434;168.382;2022-08-25T02:37:45;101261;;;unknown;44.68
74161;BME280;62512;-46.434;168.382;2022-08-25T02:38:45;101261;;;unknown;45.07
74161;BME280;62512;-46.434;168.382;2022-08-25T02:39:45;101260;;;unknown;45.42
74161;BME280;62512;-46.434;168.382;2022-08-25T02:40:47;101262;;;unknown;45.82
74161;BME280;62512;-46.434;168.382;2022-08-25T02:41:45;101262;;;unknown;45.82
74161;BME280;62512;-46.434;168.382;2022-08-25T02:42:45;101258;;;unknown;45.46
74161;BME280;62512;-46.434;168.382;2022-08-25T02:43:46;101261;;;unknown;45.97
74161;BME280;62512;-46.434;168.382;2022-08-25T02:44:45;101261;;;unknown;45.97
74161;BME280;62512;-46.434;168.382;2022-08-25T02:45:45;101259;;;unknown;46.00
74161;BME280;62512;-46.434;168.382;2022-08-25T02:46:45;101259;;;unknown;46.00
74161;BME280;62512;-46.434;168.382;2022-08-25T02:47:45;101254;;;unknown;46.08
74161;BME280;62512;-46.434;168.382;2022-08-25T02:48:46;101254;;;unknown;45.75
74161;BME280;62512;-46.434;168.382;2022-08-25T02:49:45;101256;;;unknown;45.08
74161;BME280;62512;-46.434;168.382;2022-08-25T02:50:46;101256;;;unknown;45.09
74161;BME280;62512;-46.434;168.382;2022-08-25T02:51:45;101262;;;unknown;45.82
74161;BME280;62512;-46.434;168.382;2022-08-25T02:52:45;101262;;;unknown;45.82
74161;BME280;62512;-46.434;168.382;2022-08-25T02:54:45;101261;;;unknown;46.20
74161;BME280;62512;-46.434;168.382;2022-08-25T02:55:45;101259;;;unknown;46.26
74161;BME280;62512;-46.434;168.382;2022-08-25T02:56:45;101257;;;unknown;46.35
74161;BME280;62512;-46.434;168.382;2022-08-25T02:57:45;101259;;;unknown;46.63
74161;BME280;62512;-46.434;168.382;2022-08-25T02:58:46;101258;;;unknown;46.98
74161;BME280;62512;-46.434;168.382;2022-08-25T02:59:45;101259;;;unknown;46.89
74161;BME280;62512;-46.434;168.382;2022-08-25T03:00:45;101256;;;unknown;46.68
74161;BME280;62512;-46.434;168.382;2022-08-25T03:01:45;101259;;;unknown;46.71
74161;BME280;62512;-46.434;168.382;2022-08-25T03:02:45;101256;;;unknown;46.41
74161;BME280;62512;-46.434;168.382;2022-08-25T03:03:46;101252;;;unknown;46.44
74161;BME280;62512;-46.434;168.382;2022-08-25T03:04:45;101252;;;unknown;46.72
74161;BME280;62512;-46.434;168.382;2022-08-25T03:05:45;101252;;;unknown;46.42
74161;BME280;62512;-46.434;168.382;2022-08-25T03:06:45;101250;;;unknown;46.23
74161;BME280;62512;-46.434;168.382;2022-08-25T03:07:45;101249;;;unknown;46.20
74161;BME280;62512;-46.434;168.382;2022-08-25T03:08:45;101251;;;unknown;46.39
74161;BME280;62512;-46.434;168.382;2022-08-25T03:09:45;101250;;;unknown;46.57
74161;BME280;62512;-46.434;168.382;2022-08-25T03:10:45;101252;;;unknown;46.15
74161;BME280;62512;-46.434;168.382;2022-08-25T03:11:45;101251;;;unknown;46.31
74161;BME280;62512;-46.434;168.382;2022-08-25T03:12:45;101252;;;unknown;46.28
74161;BME280;62512;-46.434;168.382;2022-08-25T03:13:45;101249;;;unknown;46.30
74161;BME280;62512;-46.434;168.382;2022-08-25T03:15:46;101252;;;unknown;46.37
74161;BME280;62512;-46.434;168.382;2022-08-25T03:16:45;101251;;;unknown;46.62
74161;BME280;62512;-46.434;168.382;2022-08-25T03:17:46;101248;;;unknown;46.89
74161;BME280;62512;-46.434;168.382;2022-08-25T03:18:45;101248;;;unknown;46.70
74161;BME280;62512;-46.434;168.382;2022-08-25T03:19:45;101253;;;unknown;46.63
74161;BME280;62512;-46.434;168.382;2022-08-25T03:20:45;101251;;;unknown;46.46
74161;BME280;62512;-46.434;168.382;2022-08-25T03:21:45;101249;;;unknown;46.45
74161;BME280;62512;-46.434;168.382;2022-08-25T03:22:45;101248;;;unknown;46.53
74161;BME280;62512;-46.434;168.382;2022-08-25T03:24:45;101252;;;unknown;46.64
74161;BME280;62512;-46.434;168.382;2022-08-25T03:25:45;101250;;;unknown;46.83
74161;BME280;62512;-46.434;168.382;2022-08-25T03:26:45;101254;;;unknown;47.03
74161;BME280;62512;-46.434;168.382;2022-08-25T03:27:45;101251;;;unknown;47.28
74161;BME280;62512;-46.434;168.382;2022-08-25T03:29:45;101252;;;unknown;47.07
74161;BME280;62512;-46.434;168.382;2022-08-25T03:30:45;101253;;;unknown;47.01
74161;BME280;62512;-46.434;168.382;2022-08-25T03:31:45;101253;;;unknown;47.04
74161;BME280;62512;-46.434;168.382;2022-08-25T03:32:45;101255;;;unknown;47.17
74161;BME280;62512;-46.434;168.382;2022-08-25T03:34:45;101257;;;unknown;47.33
74161;BME280;62512;-46.434;168.382;2022-08-25T03:35:45;101260;;;unknown;47.40
74161;BME280;62512;-46.434;168.382;2022-08-25T03:36:46;101260;;;unknown;47.40
74161;BME280;62512;-46.434;168.382;2022-08-25T03:38:45;101260;;;unknown;47.35
74161;BME280;62512;-46.434;168.382;2022-08-25T03:39:45;101258;;;unknown;47.40
74161;BME280;62512;-46.434;168.382;2022-08-25T03:40:45;101265;;;unknown;47.04
74161;BME280;62512;-46.434;168.382;2022-08-25T03:41:45;101262;;;unknown;47.28
74161;BME280;62512;-46.434;168.382;2022-08-25T03:42:45;101263;;;unknown;47.26
74161;BME280;62512;-46.434;168.382;2022-08-25T03:43:45;101264;;;unknown;47.13
74161;BME280;62512;-46.434;168.382;2022-08-25T03:45:46;101262;;;unknown;46.96
74161;BME280;62512;-46.434;168.382;2022-08-25T03:46:46;101261;;;unknown;46.94
74161;BME280;62512;-46.434;168.382;2022-08-25T03:48:45;101261;;;unknown;47.50
74161;BME280;62512;-46.434;168.382;2022-08-25T03:49:45;101261;;;unknown;48.00
74161;BME280;62512;-46.434;168.382;2022-08-25T03:50:46;101261;;;unknown;48.65
74161;BME280;62512;-46.434;168.382;2022-08-25T03:51:46;101258;;;unknown;48.80
74161;BME280;62512;-46.434;168.382;2022-08-25T03:52:49;101258;;;unknown;48.22
74161;BME280;62512;-46.434;168.382;2022-08-25T03:53:45;101260;;;unknown;48.67
74161;BME280;62512;-46.434;168.382;2022-08-25T03:54:45;101259;;;unknown;48.73
74161;BME280;62512;-46.434;168.382;2022-08-25T03:55:45;101259;;;unknown;48.67
74161;BME280;62512;-46.434;168.382;2022-08-25T03:56:45;101257;;;unknown;48.76
74161;BME280;62512;-46.434;168.382;2022-08-25T03:57:45;101256;;;unknown;48.40
74161;BME280;62512;-46.434;168.382;2022-08-25T03:58:45;101255;;;unknown;48.51
74161;BME280;62512;-46.434;168.382;2022-08-25T03:59:45;101258;;;unknown;48.37
74161;BME280;62512;-46.434;168.382;2022-08-25T04:00:45;101256;;;unknown;48.41
74161;BME280;62512;-46.434;168.382;2022-08-25T04:01:46;101259;;;unknown;48.69
74161;BME280;62512;-46.434;168.382;2022-08-25T04:02:45;101257;;;unknown;48.86
74161;BME280;62512;-46.434;168.382;2022-08-25T04:04:45;101256;;;unknown;48.73
74161;BME280;62512;-46.434;168.382;2022-08-25T04:05:45;101259;;;unknown;48.90
74161;BME280;62512;-46.434;168.382;2022-08-25T04:07:45;101258;;;unknown;48.82
74161;BME280;62512;-46.434;168.382;2022-08-25T04:08:45;101258;;;unknown;48.80
74161;BME280;62512;-46.434;168.382;2022-08-25T04:10:45;101255;;;unknown;48.81
74161;BME280;62512;-46.434;168.382;2022-08-25T04:11:45;101253;;;unknown;48.95
74161;BME280;62512;-46.434;168.382;2022-08-25T04:12:45;101254;;;unknown;48.98
74161;BME280;62512;-46.434;168.382;2022-08-25T04:14:46;101251;;;unknown;49.28
74161;BME280;62512;-46.434;168.382;2022-08-25T04:15:45;101250;;;unknown;49.49
74161;BME280;62512;-46.434;168.382;2022-08-25T04:16:45;101250;;;unknown;49.61
74161;BME280;62512;-46.434;168.382;2022-08-25T04:17:45;101252;;;unknown;49.57
74161;BME280;62512;-46.434;168.382;2022-08-25T04:18:46;101247;;;unknown;49.67
74161;BME280;62512;-46.434;168.382;2022-08-25T04:19:45;101249;;;unknown;49.68
74161;BME280;62512;-46.434;168.382;2022-08-25T04:20:45;101251;;;unknown;49.63
74161;BME280;62512;-46.434;168.382;2022-08-25T04:21:45;101250;;;unknown;49.54
74161;BME280;62512;-46.434;168.382;2022-08-25T04:22:45;101251;;;unknown;49.56
74161;BME280;62512;-46.434;168.382;2022-08-25T04:23:46;101255;;;unknown;49.61
74161;BME280;62512;-46.434;168.382;2022-08-25T04:24:45;101253;;;unknown;49.60
74161;BME280;62512;-46.434;168.382;2022-08-25T04:25:45;101258;;;unknown;49.69
74161;BME280;62512;-46.434;168.382;2022-08-25T04:27:45;101259;;;unknown;49.90
74161;BME280;62512;-46.434;168.382;2022-08-25T04:30:45;101257;;;unknown;50.04
74161;BME280;62512;-46.434;168.382;2022-08-25T04:33:45;101257;;;unknown;50.06
74161;BME280;62512;-46.434;168.382;2022-08-25T04:34:45;101259;;;unknown;50.22
74161;BME280;62512;-46.434;168.382;2022-08-25T04:36:45;101262;;;unknown;50.70
74161;BME280;62512;-46.434;168.382;2022-08-25T04:37:45;101265;;;unknown;50.67
74161;BME280;62512;-46.434;168.382;2022-08-25T04:38:46;101264;;;unknown;50.65
74161;BME280;62512;-46.434;168.382;2022-08-25T04:39:45;101265;;;unknown;50.83
74161;BME280;62512;-46.434;168.382;2022-08-25T04:40:45;101269;;;unknown;50.98
74161;BME280;62512;-46.434;168.382;2022-08-25T04:41:45;101266;;;unknown;50.83
74161;BME280;62512;-46.434;168.382;2022-08-25T04:42:45;101266;;;unknown;50.88
74161;BME280;62512;-46.434;168.382;2022-08-25T04:47:45;101270;;;unknown;51.07
74161;BME280;62512;-46.434;168.382;2022-08-25T04:49:45;101276;;;unknown;51.09
74161;BME280;62512;-46.434;168.382;2022-08-25T04:50:45;101274;;;unknown;50.98
74161;BME280;62512;-46.434;168.382;2022-08-25T04:51:45;101280;;;unknown;50.95
74161;BME280;62512;-46.434;168.382;2022-08-25T04:52:46;101278;;;unknown;51.00
74161;BME280;62512;-46.434;168.382;2022-08-25T04:53:45;101278;;;unknown;51.00
74161;BME280;62512;-46.434;168.382;2022-08-25T04:54:45;101276;;;unknown;51.08
74161;BME280;62512;-46.434;168.382;2022-08-25T04:56:46;101281;;;unknown;51.32
74161;BME280;62512;-46.434;168.382;2022-08-25T04:57:45;101280;;;unknown;51.14
74161;BME280;62512;-46.434;168.382;2022-08-25T04:58:45;101282;;;unknown;51.03
74161;BME280;62512;-46.434;168.382;2022-08-25T04:59:45;101280;;;unknown;50.96
74161;BME280;62512;-46.434;168.382;2022-08-25T05:00:46;101279;;;unknown;51.09
74161;BME280;62512;-46.434;168.382;2022-08-25T05:01:45;101281;;;unknown;51.17
74161;BME280;62512;-46.434;168.382;2022-08-25T05:02:45;101283;;;unknown;51.12
74161;BME280;62512;-46.434;168.382;2022-08-25T05:03:46;101284;;;unknown;51.05
74161;BME280;62512;-46.434;168.382;2022-08-25T05:04:45;101284;;;unknown;50.97
74161;BME280;62512;-46.434;168.382;2022-08-25T05:05:45;101286;;;unknown;50.94
74161;BME280;62512;-46.434;168.382;2022-08-25T05:07:45;101287;;;unknown;51.03
74161;BME280;62512;-46.434;168.382;2022-08-25T05:08:45;101289;;;unknown;50.80
74161;BME280;62512;-46.434;168.382;2022-08-25T05:09:45;101288;;;unknown;50.72
74161;BME280;62512;-46.434;168.382;2022-08-25T05:10:45;101289;;;unknown;50.76
74161;BME280;62512;-46.434;168.382;2022-08-25T05:11:45;101288;;;unknown;50.74
74161;BME280;62512;-46.434;168.382;2022-08-25T05:12:45;101287;;;unknown;50.74
74161;BME280;62512;-46.434;168.382;2022-08-25T05:13:46;101288;;;unknown;50.92
74161;BME280;62512;-46.434;168.382;2022-08-25T05:14:45;101290;;;unknown;51.11
74161;BME280;62512;-46.434;168.382;2022-08-25T05:15:52;101289;;;unknown;51.30
74161;BME280;62512;-46.434;168.382;2022-08-25T05:16:45;101286;;;unknown;51.46
74161;BME280;62512;-46.434;168.382;2022-08-25T05:17:45;101287;;;unknown;51.58
74161;BME280;62512;-46.434;168.382;2022-08-25T05:18:45;101290;;;unknown;51.80
74161;BME280;62512;-46.434;168.382;2022-08-25T05:19:45;101295;;;unknown;52.11
74161;BME280;62512;-46.434;168.382;2022-08-25T05:20:45;101295;;;unknown;52.41
74161;BME280;62512;-46.434;168.382;2022-08-25T05:21:45;101296;;;unknown;52.72
74161;BME280;62512;-46.434;168.382;2022-08-25T05:22:45;101293;;;unknown;52.96
74161;BME280;62512;-46.434;168.382;2022-08-25T05:23:45;101293;;;unknown;53.26
74161;BME280;62512;-46.434;168.382;2022-08-25T05:24:45;101296;;;unknown;53.51
74161;BME280;62512;-46.434;168.382;2022-08-25T05:25:45;101294;;;unknown;53.70
74161;BME280;62512;-46.434;168.382;2022-08-25T05:26:45;101294;;;unknown;53.92
74161;BME280;62512;-46.434;168.382;2022-08-25T05:27:45;101292;;;unknown;54.07
74161;BME280;62512;-46.434;168.382;2022-08-25T05:28:46;101293;;;unknown;54.34
74161;BME280;62512;-46.434;168.382;2022-08-25T05:29:45;101292;;;unknown;54.60
74161;BME280;62512;-46.434;168.382;2022-08-25T05:30:45;101292;;;unknown;54.82
74161;BME280;62512;-46.434;168.382;2022-08-25T05:31:45;101289;;;unknown;55.10
74161;BME280;62512;-46.434;168.382;2022-08-25T05:32:45;101291;;;unknown;55.33
74161;BME280;62512;-46.434;168.382;2022-08-25T05:33:45;101290;;;unknown;55.56
74161;BME280;62512;-46.434;168.382;2022-08-25T05:34:45;101292;;;unknown;55.78
74161;BME280;62512;-46.434;168.382;2022-08-25T05:35:45;101293;;;unknown;55.95
74161;BME280;62512;-46.434;168.382;2022-08-25T05:36:45;101292;;;unknown;56.09
74161;BME280;62512;-46.434;168.382;2022-08-25T05:37:45;101291;;;unknown;56.30
74161;BME280;62512;-46.434;168.382;2022-08-25T05:38:46;101292;;;unknown;56.47
74161;BME280;62512;-46.434;168.382;2022-08-25T05:39:45;101293;;;unknown;56.64
74161;BME280;62512;-46.434;168.382;2022-08-25T05:40:45;101293;;;unknown;56.82
74161;BME280;62512;-46.434;168.382;2022-08-25T05:41:45;101289;;;unknown;57.05
74161;BME280;62512;-46.434;168.382;2022-08-25T05:42:45;101292;;;unknown;57.21
74161;BME280;62512;-46.434;168.382;2022-08-25T05:43:46;101294;;;unknown;57.35
74161;BME280;62512;-46.434;168.382;2022-08-25T05:44:45;101297;;;unknown;57.58
74161;BME280;62512;-46.434;168.382;2022-08-25T05:45:45;101296;;;unknown;57.85
74161;BME280;62512;-46.434;168.382;2022-08-25T05:46:45;101299;;;unknown;58.04
74161;BME280;62512;-46.434;168.382;2022-08-25T05:47:45;101293;;;unknown;58.16
74161;BME280;62512;-46.434;168.382;2022-08-25T05:48:45;101294;;;unknown;58.28
74161;BME280;62512;-46.434;168.382;2022-08-25T05:49:45;101295;;;unknown;58.38
74161;BME280;62512;-46.434;168.382;2022-08-25T05:50:50;101296;;;unknown;58.49
74161;BME280;62512;-46.434;168.382;2022-08-25T05:51:45;101299;;;unknown;58.60
74161;BME280;62512;-46.434;168.382;2022-08-25T05:52:45;101298;;;unknown;58.69